sensor_id;sensor_type;location;lat;lon;timestamp;temperature;humidity
18450;DHT22;9354;50.194;7.690;2022-12-07T00:01:54;3.40;99.90
18450;DHT22;9354;50.194;7.690;2022-12-07T00:04:21;3.40;99.90
18450;DHT22;9354;50.194;7.690;2022-12-07T00:06:52;3.30;99.90
18450;DHT22;9354;50.194;7.690;2022-12-07T00:09:20;3.30;99.90
18450;DHT22;9354;50.194;7.690;2022-12-07T00:11:49;3.30;99.90
18450;DHT22;9354;50.194;7.690;2022-12-07T00:14:18;3.30;99.90
18450;DHT22;9354;50.194;7.690;2022-12-07T00:16:45;3.30;99.90
18450;DHT22;9354;50.194;7.690;2022-12-07T00:19:14;3.30;99.90
18450;DHT22;9354;50.194;7.690;2022-12-07T00:21:42;3.30;99.90
18450;DHT22;9354;50.194;7.690;2022-12-07T00:24:11;3.30;99.90
18450;DHT22;9354;50.194;7.690;2022-12-07T00:26:40;3.30;99.90
18450;DHT22;9354;50.194;7.690;2022-12-07T00:29:15;3.40;99.90
18450;DHT22;9354;50.194;7.690;2022-12-07T00:31:43;3.30;99.90
18450;DHT22;9354;50.194;7.690;2022-12-07T00:34:13;3.40;99.90
18450;DHT22;9354;50.194;7.690;2022-12-07T00:36:40;3.40;99.90
18450;DHT22;9354;50.194;7.690;2022-12-07T00:39:08;3.40;99.90
18450;DHT22;9354;50.194;7.690;2022-12-07T00:41:37;3.40;99.90
18450;DHT22;9354;50.194;7.690;2022-12-07T00:44:04;3.40;99.90
18450;DHT22;9354;50.194;7.690;2022-12-07T00:46:31;3.40;99.90
18450;DHT22;9354;50.194;7.690;2022-12-07T00:48:59;3.40;99.90
18450;DHT22;9354;50.194;7.690;2022-12-07T00:51:26;3.40;99.90
18450;DHT22;9354;50.194;7.690;2022-12-07T00:53:54;3.40;99.90
18450;DHT22;9354;50.194;7.690;2022-12-07T00:56:24;3.40;99.90
18450;DHT22;9354;50.194;7.690;2022-12-07T00:58:55;3.40;99.90
18450;DHT22;9354;50.194;7.690;2022-12-07T01:01:23;3.40;99.90
18450;DHT22;9354;50.194;7.690;2022-12-07T01:03:51;3.40;99.90
18450;DHT22;9354;50.194;7.690;2022-12-07T01:06:20;3.40;99.90
18450;DHT22;9354;50.194;7.690;2022-12-07T01:08:48;3.40;99.90
18450;DHT22;9354;50.194;7.690;2022-12-07T01:11:18;3.40;99.90
18450;DHT22;9354;50.194;7.690;2022-12-07T01:13:45;3.40;99.90
18450;DHT22;9354;50.194;7.690;2022-12-07T01:16:15;3.40;99.90
18450;DHT22;9354;50.194;7.690;2022-12-07T01:18:46;3.40;99.90
18450;DHT22;9354;50.194;7.690;2022-12-07T01:21:16;3.40;99.90
18450;DHT22;9354;50.194;7.690;2022-12-07T01:23:44;3.40;99.90
18450;DHT22;9354;50.194;7.690;2022-12-07T01:26:13;3.40;99.90
18450;DHT22;9354;50.194;7.690;2022-12-07T01:28:41;3.40;99.90
18450;DHT22;9354;50.194;7.690;2022-12-07T01:31:10;3.30;99.90
18450;DHT22;9354;50.194;7.690;2022-12-07T01:33:43;3.30;99.90
18450;DHT22;9354;50.194;7.690;2022-12-07T01:36:14;3.30;99.90
18450;DHT22;9354;50.194;7.690;2022-12-07T01:38:42;3.30;99.90
18450;DHT22;9354;50.194;7.690;2022-12-07T01:41:09;3.30;99.90
18450;DHT22;9354;50.194;7.690;2022-12-07T01:44:06;3.30;99.90
18450;DHT22;9354;50.194;7.690;2022-12-07T01:46:29;3.30;99.90
18450;DHT22;9354;50.194;7.690;2022-12-07T01:48:58;3.30;99.90
18450;DHT22;9354;50.194;7.690;2022-12-07T01:51:25;3.30;99.90
18450;DHT22;9354;50.194;7.690;2022-12-07T01:53:54;3.30;99.90
18450;DHT22;9354;50.194;7.690;2022-12-07T01:56:25;3.30;99.90
18450;DHT22;9354;50.194;7.690;2022-12-07T01:58:55;3.30;99.90
18450;DHT22;9354;50.194;7.690;2022-12-07T02:01:23;3.30;99.90
18450;DHT22;9354;50.194;7.690;2022-12-07T02:03:51;3.30;99.90
18450;DHT22;9354;50.194;7.690;2022-12-07T02:06:23;3.30;99.90
18450;DHT22;9354;50.194;7.690;2022-12-07T02:08:52;3.30;99.90
18450;DHT22;9354;50.194;7.690;2022-12-07T02:11:19;3.30;99.90
18450;DHT22;9354;50.194;7.690;2022-12-07T02:13:47;3.30;99.90
18450;DHT22;9354;50.194;7.690;2022-12-07T02:16:23;3.30;99.90
18450;DHT22;9354;50.194;7.690;2022-12-07T02:19:03;3.30;99.90
18450;DHT22;9354;50.194;7.690;2022-12-07T02:21:40;3.30;99.90
18450;DHT22;9354;50.194;7.690;2022-12-07T02:24:30;3.30;99.90
18450;DHT22;9354;50.194;7.690;2022-12-07T02:27:33;3.30;99.90
18450;DHT22;9354;50.194;7.690;2022-12-07T02:30:06;3.30;99.90
18450;DHT22;9354;50.194;7.690;2022-12-07T02:32:43;3.30;99.90
18450;DHT22;9354;50.194;7.690;2022-12-07T02:35:15;3.40;99.90
18450;DHT22;9354;50.194;7.690;2022-12-07T02:37:51;3.30;99.90
18450;DHT22;9354;50.194;7.690;2022-12-07T02:40:23;3.30;99.90
18450;DHT22;9354;50.194;7.690;2022-12-07T02:42:57;3.40;99.90
18450;DHT22;9354;50.194;7.690;2022-12-07T02:45:29;3.40;99.90
18450;DHT22;9354;50.194;7.690;2022-12-07T02:47:59;3.40;99.90
18450;DHT22;9354;50.194;7.690;2022-12-07T02:50:27;3.40;99.90
18450;DHT22;9354;50.194;7.690;2022-12-07T02:52:55;3.40;99.90
18450;DHT22;9354;50.194;7.690;2022-12-07T02:55:26;3.40;99.90
18450;DHT22;9354;50.194;7.690;2022-12-07T02:58:17;3.40;99.90
18450;DHT22;9354;50.194;7.690;2022-12-07T03:00:54;3.40;99.90
18450;DHT22;9354;50.194;7.690;2022-12-07T03:03:25;3.40;99.90
18450;DHT22;9354;50.194;7.690;2022-12-07T03:06:08;3.40;99.90
18450;DHT22;9354;50.194;7.690;2022-12-07T03:08:48;3.40;99.90
18450;DHT22;9354;50.194;7.690;2022-12-07T03:11:24;3.50;99.90
18450;DHT22;9354;50.194;7.690;2022-12-07T03:13:58;3.50;99.90
18450;DHT22;9354;50.194;7.690;2022-12-07T03:16:31;3.50;99.90
18450;DHT22;9354;50.194;7.690;2022-12-07T03:19:03;3.50;99.90
18450;DHT22;9354;50.194;7.690;2022-12-07T03:21:33;3.50;99.90
18450;DHT22;9354;50.194;7.690;2022-12-07T03:24:06;3.50;99.90
18450;DHT22;9354;50.194;7.690;2022-12-07T03:26:38;3.50;99.90
18450;DHT22;9354;50.194;7.690;2022-12-07T03:29:14;3.50;99.90
18450;DHT22;9354;50.194;7.690;2022-12-07T03:31:48;3.50;99.90
18450;DHT22;9354;50.194;7.690;2022-12-07T03:34:22;3.50;99.90
18450;DHT22;9354;50.194;7.690;2022-12-07T03:36:56;3.50;99.90
18450;DHT22;9354;50.194;7.690;2022-12-07T03:39:27;3.50;99.90
18450;DHT22;9354;50.194;7.690;2022-12-07T03:41:59;3.50;99.90
18450;DHT22;9354;50.194;7.690;2022-12-07T03:44:28;3.50;99.90
18450;DHT22;9354;50.194;7.690;2022-12-07T03:47:02;3.50;99.90
18450;DHT22;9354;50.194;7.690;2022-12-07T03:49:37;3.50;99.90
18450;DHT22;9354;50.194;7.690;2022-12-07T03:52:12;3.50;99.90
18450;DHT22;9354;50.194;7.690;2022-12-07T03:54:47;3.50;99.90
18450;DHT22;9354;50.194;7.690;2022-12-07T03:57:15;3.50;99.90
18450;DHT22;9354;50.194;7.690;2022-12-07T03:59:45;3.50;99.90
18450;DHT22;9354;50.194;7.690;2022-12-07T04:02:14;3.50;99.90
18450;DHT22;9354;50.194;7.690;2022-12-07T04:04:43;3.50;99.90
18450;DHT22;9354;50.194;7.690;2022-12-07T04:07:10;3.50;99.90
18450;DHT22;9354;50.194;7.690;2022-12-07T04:09:39;3.50;99.90
18450;DHT22;9354;50.194;7.690;2022-12-07T04:12:07;3.50;99.90
18450;DHT22;9354;50.194;7.690;2022-12-07T04:14:34;3.50;99.90
18450;DHT22;9354;50.194;7.690;2022-12-07T04:17:02;3.50;99.90
18450;DHT22;9354;50.194;7.690;2022-12-07T04:19:32;3.50;99.90
18450;DHT22;9354;50.194;7.690;2022-12-07T04:22:01;3.50;99.90
18450;DHT22;9354;50.194;7.690;2022-12-07T04:24:28;3.50;99.90
18450;DHT22;9354;50.194;7.690;2022-12-07T04:26:56;3.50;99.90
18450;DHT22;9354;50.194;7.690;2022-12-07T04:29:24;3.50;99.90
18450;DHT22;9354;50.194;7.690;2022-12-07T04:31:51;3.50;99.90
18450;DHT22;9354;50.194;7.690;2022-12-07T04:34:19;3.50;99.90
18450;DHT22;9354;50.194;7.690;2022-12-07T04:36:48;3.50;99.90
18450;DHT22;9354;50.194;7.690;2022-12-07T04:39:19;3.50;99.90
18450;DHT22;9354;50.194;7.690;2022-12-07T04:41:47;3.50;99.90
18450;DHT22;9354;50.194;7.690;2022-12-07T04:44:15;3.50;99.90
18450;DHT22;9354;50.194;7.690;2022-12-07T04:46:43;3.50;99.90
18450;DHT22;9354;50.194;7.690;2022-12-07T04:49:11;3.50;99.90
18450;DHT22;9354;50.194;7.690;2022-12-07T04:51:39;3.50;99.90
18450;DHT22;9354;50.194;7.690;2022-12-07T04:54:08;3.50;99.90
18450;DHT22;9354;50.194;7.690;2022-12-07T04:56:35;3.50;99.90
18450;DHT22;9354;50.194;7.690;2022-12-07T04:59:03;3.50;99.90
18450;DHT22;9354;50.194;7.690;2022-12-07T05:01:31;3.50;99.90
18450;DHT22;9354;50.194;7.690;2022-12-07T05:03:59;3.50;99.90
18450;DHT22;9354;50.194;7.690;2022-12-07T05:06:26;3.60;99.90
18450;DHT22;9354;50.194;7.690;2022-12-07T05:08:53;3.60;99.90
18450;DHT22;9354;50.194;7.690;2022-12-07T05:11:22;3.50;99.90
18450;DHT22;9354;50.194;7.690;2022-12-07T05:14:07;3.50;99.90
18450;DHT22;9354;50.194;7.690;2022-12-07T05:16:35;3.50;99.90
18450;DHT22;9354;50.194;7.690;2022-12-07T05:19:02;3.60;99.90
18450;DHT22;9354;50.194;7.690;2022-12-07T05:21:30;3.60;99.90
18450;DHT22;9354;50.194;7.690;2022-12-07T05:23:57;3.60;99.90
18450;DHT22;9354;50.194;7.690;2022-12-07T05:26:26;3.60;99.90
18450;DHT22;9354;50.194;7.690;2022-12-07T05:28:54;3.60;99.90
18450;DHT22;9354;50.194;7.690;2022-12-07T05:31:23;3.60;99.90
18450;DHT22;9354;50.194;7.690;2022-12-07T05:33:51;3.60;99.90
18450;DHT22;9354;50.194;7.690;2022-12-07T05:36:19;3.60;99.90
18450;DHT22;9354;50.194;7.690;2022-12-07T05:38:47;3.60;99.90
18450;DHT22;9354;50.194;7.690;2022-12-07T05:41:15;3.60;99.90
18450;DHT22;9354;50.194;7.690;2022-12-07T05:44:02;3.60;99.90
18450;DHT22;9354;50.194;7.690;2022-12-07T05:46:30;3.60;99.90
18450;DHT22;9354;50.194;7.690;2022-12-07T05:48:57;3.60;99.90
18450;DHT22;9354;50.194;7.690;2022-12-07T05:51:25;3.60;99.90
18450;DHT22;9354;50.194;7.690;2022-12-07T05:53:52;3.60;99.90
18450;DHT22;9354;50.194;7.690;2022-12-07T05:56:20;3.60;99.90
18450;DHT22;9354;50.194;7.690;2022-12-07T05:58:47;3.60;99.90
18450;DHT22;9354;50.194;7.690;2022-12-07T06:01:33;3.60;99.90
18450;DHT22;9354;50.194;7.690;2022-12-07T06:04:00;3.60;99.90
18450;DHT22;9354;50.194;7.690;2022-12-07T06:06:28;3.50;99.90
18450;DHT22;9354;50.194;7.690;2022-12-07T06:08:55;3.60;99.90
18450;DHT22;9354;50.194;7.690;2022-12-07T06:11:22;3.60;99.90
18450;DHT22;9354;50.194;7.690;2022-12-07T06:14:07;3.60;99.90
18450;DHT22;9354;50.194;7.690;2022-12-07T06:16:36;3.60;99.90
18450;DHT22;9354;50.194;7.690;2022-12-07T06:19:03;3.60;99.90
18450;DHT22;9354;50.194;7.690;2022-12-07T06:21:31;3.60;99.90
18450;DHT22;9354;50.194;7.690;2022-12-07T06:23:58;3.60;99.90
18450;DHT22;9354;50.194;7.690;2022-12-07T06:26:26;3.60;99.90
18450;DHT22;9354;50.194;7.690;2022-12-07T06:28:53;3.60;99.90
18450;DHT22;9354;50.194;7.690;2022-12-07T06:31:20;3.60;99.90
18450;DHT22;9354;50.194;7.690;2022-12-07T06:33:49;3.60;99.90
18450;DHT22;9354;50.194;7.690;2022-12-07T06:36:17;3.60;99.90
18450;DHT22;9354;50.194;7.690;2022-12-07T06:38:44;3.60;99.90
18450;DHT22;9354;50.194;7.690;2022-12-07T06:41:11;3.60;99.90
18450;DHT22;9354;50.194;7.690;2022-12-07T06:43:39;3.60;99.90
18450;DHT22;9354;50.194;7.690;2022-12-07T06:46:06;3.60;99.90
18450;DHT22;9354;50.194;7.690;2022-12-07T06:48:34;3.60;99.90
18450;DHT22;9354;50.194;7.690;2022-12-07T06:51:03;3.60;99.90
18450;DHT22;9354;50.194;7.690;2022-12-07T06:53:30;3.60;99.90
18450;DHT22;9354;50.194;7.690;2022-12-07T06:55:57;3.60;99.90
18450;DHT22;9354;50.194;7.690;2022-12-07T06:58:25;3.60;99.90
18450;DHT22;9354;50.194;7.690;2022-12-07T07:00:52;3.60;99.90
18450;DHT22;9354;50.194;7.690;2022-12-07T07:03:20;3.60;99.90
18450;DHT22;9354;50.194;7.690;2022-12-07T07:05:47;3.60;99.90
18450;DHT22;9354;50.194;7.690;2022-12-07T07:08:16;3.60;99.90
18450;DHT22;9354;50.194;7.690;2022-12-07T07:10:44;3.60;99.90
18450;DHT22;9354;50.194;7.690;2022-12-07T07:13:11;3.60;99.90
18450;DHT22;9354;50.194;7.690;2022-12-07T07:15:38;3.60;99.90
18450;DHT22;9354;50.194;7.690;2022-12-07T07:18:06;3.60;99.90
18450;DHT22;9354;50.194;7.690;2022-12-07T07:20:33;3.60;99.90
18450;DHT22;9354;50.194;7.690;2022-12-07T07:23:01;3.60;99.90
18450;DHT22;9354;50.194;7.690;2022-12-07T07:25:30;3.60;99.90
18450;DHT22;9354;50.194;7.690;2022-12-07T07:27:57;3.60;99.90
18450;DHT22;9354;50.194;7.690;2022-12-07T07:30:24;3.60;99.90
18450;DHT22;9354;50.194;7.690;2022-12-07T07:32:56;3.60;99.90
18450;DHT22;9354;50.194;7.690;2022-12-07T07:35:23;3.70;99.90
18450;DHT22;9354;50.194;7.690;2022-12-07T07:37:51;3.70;99.90
18450;DHT22;9354;50.194;7.690;2022-12-07T07:40:18;3.70;99.90
18450;DHT22;9354;50.194;7.690;2022-12-07T07:42:49;3.70;99.90
18450;DHT22;9354;50.194;7.690;2022-12-07T07:45:16;3.70;99.90
18450;DHT22;9354;50.194;7.690;2022-12-07T07:47:44;3.70;99.90
18450;DHT22;9354;50.194;7.690;2022-12-07T07:50:11;3.70;99.90
18450;DHT22;9354;50.194;7.690;2022-12-07T07:52:39;3.70;99.90
18450;DHT22;9354;50.194;7.690;2022-12-07T07:55:07;3.70;99.90
18450;DHT22;9354;50.194;7.690;2022-12-07T07:57:35;3.70;99.90
18450;DHT22;9354;50.194;7.690;2022-12-07T08:00:06;3.70;99.90
18450;DHT22;9354;50.194;7.690;2022-12-07T08:02:34;3.70;99.90
18450;DHT22;9354;50.194;7.690;2022-12-07T08:05:01;3.70;99.90
18450;DHT22;9354;50.194;7.690;2022-12-07T08:07:29;3.70;99.90
18450;DHT22;9354;50.194;7.690;2022-12-07T08:09:56;3.80;99.90
18450;DHT22;9354;50.194;7.690;2022-12-07T08:12:23;3.80;99.90
18450;DHT22;9354;50.194;7.690;2022-12-07T08:14:51;3.80;99.90
18450;DHT22;9354;50.194;7.690;2022-12-07T08:17:19;3.80;99.90
18450;DHT22;9354;50.194;7.690;2022-12-07T08:19:47;3.90;99.90
18450;DHT22;9354;50.194;7.690;2022-12-07T08:22:14;3.90;99.90
18450;DHT22;9354;50.194;7.690;2022-12-07T08:24:41;3.90;99.90
18450;DHT22;9354;50.194;7.690;2022-12-07T08:27:09;4.00;99.90
18450;DHT22;9354;50.194;7.690;2022-12-07T08:29:36;4.00;99.90
18450;DHT22;9354;50.194;7.690;2022-12-07T08:32:04;4.00;99.90
18450;DHT22;9354;50.194;7.690;2022-12-07T08:34:32;4.00;99.90
18450;DHT22;9354;50.194;7.690;2022-12-07T08:37:00;4.00;99.90
18450;DHT22;9354;50.194;7.690;2022-12-07T08:39:27;4.00;99.90
18450;DHT22;9354;50.194;7.690;2022-12-07T08:41:55;4.00;99.90
18450;DHT22;9354;50.194;7.690;2022-12-07T08:44:22;4.00;99.90
18450;DHT22;9354;50.194;7.690;2022-12-07T08:46:52;4.00;99.90
18450;DHT22;9354;50.194;7.690;2022-12-07T08:49:23;4.00;99.90
18450;DHT22;9354;50.194;7.690;2022-12-07T08:51:53;4.00;99.90
18450;DHT22;9354;50.194;7.690;2022-12-07T08:54:21;4.10;99.90
18450;DHT22;9354;50.194;7.690;2022-12-07T08:56:50;4.00;99.90
18450;DHT22;9354;50.194;7.690;2022-12-07T08:59:19;4.00;99.90
18450;DHT22;9354;50.194;7.690;2022-12-07T09:01:47;4.00;99.90
18450;DHT22;9354;50.194;7.690;2022-12-07T09:04:15;4.00;99.90
18450;DHT22;9354;50.194;7.690;2022-12-07T09:06:42;4.00;99.90
18450;DHT22;9354;50.194;7.690;2022-12-07T09:09:11;4.00;99.90
18450;DHT22;9354;50.194;7.690;2022-12-07T09:11:40;4.00;99.90
18450;DHT22;9354;50.194;7.690;2022-12-07T09:14:08;4.00;99.90
18450;DHT22;9354;50.194;7.690;2022-12-07T09:16:35;4.10;99.90
18450;DHT22;9354;50.194;7.690;2022-12-07T09:19:03;4.10;99.90
18450;DHT22;9354;50.194;7.690;2022-12-07T09:21:30;4.10;99.90
18450;DHT22;9354;50.194;7.690;2022-12-07T09:23:58;4.10;99.90
18450;DHT22;9354;50.194;7.690;2022-12-07T09:26:26;4.10;99.90
18450;DHT22;9354;50.194;7.690;2022-12-07T09:28:54;4.10;99.90
18450;DHT22;9354;50.194;7.690;2022-12-07T09:31:21;4.10;99.90
18450;DHT22;9354;50.194;7.690;2022-12-07T09:33:53;4.10;99.90
18450;DHT22;9354;50.194;7.690;2022-12-07T09:36:20;4.10;99.90
18450;DHT22;9354;50.194;7.690;2022-12-07T09:38:48;4.10;99.90
18450;DHT22;9354;50.194;7.690;2022-12-07T09:41:15;4.10;99.90
18450;DHT22;9354;50.194;7.690;2022-12-07T09:43:44;4.10;99.90
18450;DHT22;9354;50.194;7.690;2022-12-07T09:46:15;4.30;99.90
18450;DHT22;9354;50.194;7.690;2022-12-07T09:48:44;4.50;99.90
18450;DHT22;9354;50.194;7.690;2022-12-07T09:51:17;4.60;99.90
18450;DHT22;9354;50.194;7.690;2022-12-07T09:53:45;4.60;99.90
18450;DHT22;9354;50.194;7.690;2022-12-07T09:56:14;4.60;99.90
18450;DHT22;9354;50.194;7.690;2022-12-07T09:58:44;4.70;99.90
18450;DHT22;9354;50.194;7.690;2022-12-07T10:01:14;4.70;99.90
18450;DHT22;9354;50.194;7.690;2022-12-07T10:03:47;4.70;99.90
18450;DHT22;9354;50.194;7.690;2022-12-07T10:06:15;4.70;99.90
18450;DHT22;9354;50.194;7.690;2022-12-07T10:08:43;4.70;99.90
18450;DHT22;9354;50.194;7.690;2022-12-07T10:11:11;4.70;99.90
18450;DHT22;9354;50.194;7.690;2022-12-07T10:13:41;4.70;99.90
18450;DHT22;9354;50.194;7.690;2022-12-07T10:19:23;4.70;99.90
18450;DHT22;9354;50.194;7.690;2022-12-07T10:22:02;4.70;99.90
18450;DHT22;9354;50.194;7.690;2022-12-07T10:24:30;4.70;99.90
18450;DHT22;9354;50.194;7.690;2022-12-07T10:26:58;4.70;99.90
18450;DHT22;9354;50.194;7.690;2022-12-07T10:29:29;4.60;99.90
18450;DHT22;9354;50.194;7.690;2022-12-07T10:32:01;4.60;99.90
18450;DHT22;9354;50.194;7.690;2022-12-07T10:34:30;4.60;99.90
18450;DHT22;9354;50.194;7.690;2022-12-07T10:37:14;4.50;99.90
18450;DHT22;9354;50.194;7.690;2022-12-07T10:39:43;4.60;99.90
18450;DHT22;9354;50.194;7.690;2022-12-07T10:42:18;4.60;99.90
18450;DHT22;9354;50.194;7.690;2022-12-07T10:44:47;4.60;99.90
18450;DHT22;9354;50.194;7.690;2022-12-07T10:47:33;4.70;99.90
18450;DHT22;9354;50.194;7.690;2022-12-07T10:50:28;4.70;99.90
18450;DHT22;9354;50.194;7.690;2022-12-07T10:53:11;4.90;99.90
18450;DHT22;9354;50.194;7.690;2022-12-07T10:55:54;5.10;99.90
18450;DHT22;9354;50.194;7.690;2022-12-07T10:58:33;5.30;99.90
18450;DHT22;9354;50.194;7.690;2022-12-07T11:01:10;5.50;99.90
18450;DHT22;9354;50.194;7.690;2022-12-07T11:04:10;5.60;99.90
18450;DHT22;9354;50.194;7.690;2022-12-07T11:06:48;5.60;99.90
18450;DHT22;9354;50.194;7.690;2022-12-07T11:09:38;5.60;99.90
18450;DHT22;9354;50.194;7.690;2022-12-07T11:12:15;5.60;99.90
18450;DHT22;9354;50.194;7.690;2022-12-07T11:14:54;5.70;99.90
18450;DHT22;9354;50.194;7.690;2022-12-07T11:17:28;5.80;99.90
18450;DHT22;9354;50.194;7.690;2022-12-07T11:20:14;5.90;99.90
18450;DHT22;9354;50.194;7.690;2022-12-07T11:22:51;5.80;99.90
18450;DHT22;9354;50.194;7.690;2022-12-07T11:25:26;5.70;99.90
18450;DHT22;9354;50.194;7.690;2022-12-07T11:28:06;5.60;99.90
18450;DHT22;9354;50.194;7.690;2022-12-07T11:30:45;5.50;99.90
18450;DHT22;9354;50.194;7.690;2022-12-07T11:33:17;5.50;99.90
18450;DHT22;9354;50.194;7.690;2022-12-07T11:35:56;5.50;99.90
18450;DHT22;9354;50.194;7.690;2022-12-07T11:38:31;5.50;99.90
18450;DHT22;9354;50.194;7.690;2022-12-07T11:41:05;5.50;99.90
18450;DHT22;9354;50.194;7.690;2022-12-07T11:46:45;5.70;99.90
18450;DHT22;9354;50.194;7.690;2022-12-07T11:49:19;5.90;99.90
18450;DHT22;9354;50.194;7.690;2022-12-07T11:51:52;5.90;99.90
18450;DHT22;9354;50.194;7.690;2022-12-07T11:54:24;5.80;99.90
18450;DHT22;9354;50.194;7.690;2022-12-07T11:56:54;5.90;99.90
18450;DHT22;9354;50.194;7.690;2022-12-07T11:59:29;6.00;99.90
18450;DHT22;9354;50.194;7.690;2022-12-07T12:02:03;6.20;99.90
18450;DHT22;9354;50.194;7.690;2022-12-07T12:04:47;6.40;99.90
18450;DHT22;9354;50.194;7.690;2022-12-07T12:07:22;6.60;99.90
18450;DHT22;9354;50.194;7.690;2022-12-07T12:09:53;6.70;99.90
18450;DHT22;9354;50.194;7.690;2022-12-07T12:15:29;7.00;99.90
18450;DHT22;9354;50.194;7.690;2022-12-07T12:18:21;7.00;99.90
18450;DHT22;9354;50.194;7.690;2022-12-07T12:20:54;6.90;99.90
18450;DHT22;9354;50.194;7.690;2022-12-07T12:23:27;6.80;99.90
18450;DHT22;9354;50.194;7.690;2022-12-07T12:26:02;6.60;99.90
18450;DHT22;9354;50.194;7.690;2022-12-07T12:28:35;6.60;99.90
18450;DHT22;9354;50.194;7.690;2022-12-07T12:31:10;6.50;99.90
18450;DHT22;9354;50.194;7.690;2022-12-07T12:33:43;6.30;99.90
18450;DHT22;9354;50.194;7.690;2022-12-07T12:36:23;6.30;99.90
18450;DHT22;9354;50.194;7.690;2022-12-07T12:39:09;6.20;99.90
18450;DHT22;9354;50.194;7.690;2022-12-07T12:41:58;6.20;99.90
18450;DHT22;9354;50.194;7.690;2022-12-07T12:50:25;6.50;99.90
18450;DHT22;9354;50.194;7.690;2022-12-07T12:53:05;6.70;99.90
18450;DHT22;9354;50.194;7.690;2022-12-07T12:56:10;7.00;99.90
18450;DHT22;9354;50.194;7.690;2022-12-07T12:58:42;7.10;99.90
18450;DHT22;9354;50.194;7.690;2022-12-07T13:04:24;7.30;99.90
18450;DHT22;9354;50.194;7.690;2022-12-07T13:06:52;7.40;99.90
18450;DHT22;9354;50.194;7.690;2022-12-07T13:09:22;7.40;99.90
18450;DHT22;9354;50.194;7.690;2022-12-07T13:12:02;7.50;99.90
18450;DHT22;9354;50.194;7.690;2022-12-07T13:14:42;7.60;99.90
18450;DHT22;9354;50.194;7.690;2022-12-07T13:17:11;7.60;99.90
18450;DHT22;9354;50.194;7.690;2022-12-07T13:19:57;7.60;99.90
18450;DHT22;9354;50.194;7.690;2022-12-07T13:22:49;7.60;99.90
18450;DHT22;9354;50.194;7.690;2022-12-07T13:25:33;7.50;99.90
18450;DHT22;9354;50.194;7.690;2022-12-07T13:28:13;7.40;99.90
18450;DHT22;9354;50.194;7.690;2022-12-07T13:30:46;7.20;99.90
18450;DHT22;9354;50.194;7.690;2022-12-07T13:33:15;7.20;99.90
18450;DHT22;9354;50.194;7.690;2022-12-07T13:35:44;7.10;99.90
18450;DHT22;9354;50.194;7.690;2022-12-07T13:38:22;7.00;99.90
18450;DHT22;9354;50.194;7.690;2022-12-07T13:41:01;6.80;99.90
18450;DHT22;9354;50.194;7.690;2022-12-07T13:43:29;6.70;99.90
18450;DHT22;9354;50.194;7.690;2022-12-07T13:45:57;6.60;99.90
18450;DHT22;9354;50.194;7.690;2022-12-07T13:48:30;6.60;99.90
18450;DHT22;9354;50.194;7.690;2022-12-07T13:51:01;6.60;99.90
18450;DHT22;9354;50.194;7.690;2022-12-07T13:53:29;6.60;99.90
18450;DHT22;9354;50.194;7.690;2022-12-07T13:55:58;6.70;99.90
18450;DHT22;9354;50.194;7.690;2022-12-07T13:58:29;6.70;99.90
18450;DHT22;9354;50.194;7.690;2022-12-07T14:00:58;6.80;99.90
18450;DHT22;9354;50.194;7.690;2022-12-07T14:03:29;6.90;99.90
18450;DHT22;9354;50.194;7.690;2022-12-07T14:06:07;7.00;99.90
18450;DHT22;9354;50.194;7.690;2022-12-07T14:08:34;7.00;99.90
18450;DHT22;9354;50.194;7.690;2022-12-07T14:11:02;7.00;99.90
18450;DHT22;9354;50.194;7.690;2022-12-07T14:13:33;7.00;99.90
18450;DHT22;9354;50.194;7.690;2022-12-07T14:16:01;6.90;99.90
18450;DHT22;9354;50.194;7.690;2022-12-07T14:18:35;6.70;99.90
18450;DHT22;9354;50.194;7.690;2022-12-07T14:21:04;6.60;99.90
18450;DHT22;9354;50.194;7.690;2022-12-07T14:23:31;6.50;99.90
18450;DHT22;9354;50.194;7.690;2022-12-07T14:26:08;6.40;99.90
18450;DHT22;9354;50.194;7.690;2022-12-07T14:28:41;6.20;99.90
18450;DHT22;9354;50.194;7.690;2022-12-07T14:31:11;6.10;99.90
18450;DHT22;9354;50.194;7.690;2022-12-07T14:33:39;6.00;99.90
18450;DHT22;9354;50.194;7.690;2022-12-07T14:36:09;6.00;99.90
18450;DHT22;9354;50.194;7.690;2022-12-07T14:38:36;5.90;99.90
18450;DHT22;9354;50.194;7.690;2022-12-07T14:41:04;5.80;99.90
18450;DHT22;9354;50.194;7.690;2022-12-07T14:43:50;5.80;99.90
18450;DHT22;9354;50.194;7.690;2022-12-07T14:46:18;5.70;99.90
18450;DHT22;9354;50.194;7.690;2022-12-07T14:48:45;5.60;99.90
18450;DHT22;9354;50.194;7.690;2022-12-07T14:51:12;5.50;99.90
18450;DHT22;9354;50.194;7.690;2022-12-07T14:53:41;5.50;99.90
18450;DHT22;9354;50.194;7.690;2022-12-07T14:56:09;5.50;99.90
18450;DHT22;9354;50.194;7.690;2022-12-07T14:58:37;5.40;99.90
18450;DHT22;9354;50.194;7.690;2022-12-07T15:01:06;5.40;99.90
18450;DHT22;9354;50.194;7.690;2022-12-07T15:03:33;5.40;99.90
18450;DHT22;9354;50.194;7.690;2022-12-07T15:06:04;5.40;99.90
18450;DHT22;9354;50.194;7.690;2022-12-07T15:08:31;5.30;99.90
18450;DHT22;9354;50.194;7.690;2022-12-07T15:10:58;5.30;99.90
18450;DHT22;9354;50.194;7.690;2022-12-07T15:13:26;5.20;99.90
18450;DHT22;9354;50.194;7.690;2022-12-07T15:16:14;5.20;99.90
18450;DHT22;9354;50.194;7.690;2022-12-07T15:18:43;5.20;99.90
18450;DHT22;9354;50.194;7.690;2022-12-07T15:21:12;5.10;99.90
18450;DHT22;9354;50.194;7.690;2022-12-07T15:23:42;5.10;99.90
18450;DHT22;9354;50.194;7.690;2022-12-07T15:26:10;5.20;99.90
18450;DHT22;9354;50.194;7.690;2022-12-07T15:28:38;5.20;99.90
18450;DHT22;9354;50.194;7.690;2022-12-07T15:31:12;5.20;99.90
18450;DHT22;9354;50.194;7.690;2022-12-07T15:33:39;5.20;99.90
18450;DHT22;9354;50.194;7.690;2022-12-07T15:36:07;5.10;99.90
18450;DHT22;9354;50.194;7.690;2022-12-07T15:38:35;5.10;99.90
18450;DHT22;9354;50.194;7.690;2022-12-07T15:41:02;5.00;99.90
18450;DHT22;9354;50.194;7.690;2022-12-07T15:43:30;5.00;99.90
18450;DHT22;9354;50.194;7.690;2022-12-07T15:46:16;4.90;99.90
18450;DHT22;9354;50.194;7.690;2022-12-07T15:48:45;4.80;99.90
18450;DHT22;9354;50.194;7.690;2022-12-07T15:51:12;4.80;99.90
18450;DHT22;9354;50.194;7.690;2022-12-07T15:53:40;4.70;99.90
18450;DHT22;9354;50.194;7.690;2022-12-07T15:56:08;4.70;99.90
18450;DHT22;9354;50.194;7.690;2022-12-07T15:58:35;4.70;99.90
18450;DHT22;9354;50.194;7.690;2022-12-07T16:01:10;4.60;99.90
18450;DHT22;9354;50.194;7.690;2022-12-07T16:03:39;4.60;99.90
18450;DHT22;9354;50.194;7.690;2022-12-07T16:06:07;4.60;99.90
18450;DHT22;9354;50.194;7.690;2022-12-07T16:08:34;4.50;99.90
18450;DHT22;9354;50.194;7.690;2022-12-07T16:11:05;4.50;99.90
18450;DHT22;9354;50.194;7.690;2022-12-07T16:13:33;4.50;99.90
18450;DHT22;9354;50.194;7.690;2022-12-07T16:16:03;4.50;99.90
18450;DHT22;9354;50.194;7.690;2022-12-07T16:18:30;4.40;99.90
18450;DHT22;9354;50.194;7.690;2022-12-07T16:20:59;4.40;99.90
18450;DHT22;9354;50.194;7.690;2022-12-07T16:23:26;4.40;99.90
18450;DHT22;9354;50.194;7.690;2022-12-07T16:25:54;4.40;99.90
18450;DHT22;9354;50.194;7.690;2022-12-07T16:28:23;4.40;99.90
18450;DHT22;9354;50.194;7.690;2022-12-07T16:31:00;4.40;99.90
18450;DHT22;9354;50.194;7.690;2022-12-07T16:33:27;4.40;99.90
18450;DHT22;9354;50.194;7.690;2022-12-07T16:35:55;4.40;99.90
18450;DHT22;9354;50.194;7.690;2022-12-07T16:38:23;4.40;99.90
18450;DHT22;9354;50.194;7.690;2022-12-07T16:40:51;4.40;99.90
18450;DHT22;9354;50.194;7.690;2022-12-07T16:43:18;4.40;99.90
18450;DHT22;9354;50.194;7.690;2022-12-07T16:45:46;4.40;99.90